sensor_id;sensor_type;location;lat;lon;timestamp;P1;durP1;ratioP1;P2;durP2;ratioP2
33858;SDS011;20156;47.486;12.074;2024-02-26T00:00:24;3.23;;;2.93;;
33858;SDS011;20156;47.486;12.074;2024-02-26T00:02:50;3.37;;;3.00;;
33858;SDS011;20156;47.486;12.074;2024-02-26T00:05:15;2.53;;;2.33;;
33858;SDS011;20156;47.486;12.074;2024-02-26T00:07:40;3.20;;;2.87;;
33858;SDS011;20156;47.486;12.074;2024-02-26T00:10:06;5.23;;;3.80;;
33858;SDS011;20156;47.486;12.074;2024-02-26T00:12:31;4.13;;;3.23;;
33858;SDS011;20156;47.486;12.074;2024-02-26T00:14:57;3.50;;;3.20;;
33858;SDS011;20156;47.486;12.074;2024-02-26T00:17:23;4.60;;;3.23;;
33858;SDS011;20156;47.486;12.074;2024-02-26T00:19:49;4.20;;;3.03;;
33858;SDS011;20156;47.486;12.074;2024-02-26T00:22:14;4.27;;;3.30;;
33858;SDS011;20156;47.486;12.074;2024-02-26T00:24:40;6.57;;;4.00;;
33858;SDS011;20156;47.486;12.074;2024-02-26T00:27:05;6.77;;;4.37;;
33858;SDS011;20156;47.486;12.074;2024-02-26T00:29:30;4.17;;;3.70;;
33858;SDS011;20156;47.486;12.074;2024-02-26T00:31:57;4.60;;;3.50;;
33858;SDS011;20156;47.486;12.074;2024-02-26T00:34:22;6.83;;;4.30;;
33858;SDS011;20156;47.486;12.074;2024-02-26T00:36:47;5.13;;;3.67;;
33858;SDS011;20156;47.486;12.074;2024-02-26T00:39:13;5.97;;;4.37;;
33858;SDS011;20156;47.486;12.074;2024-02-26T00:41:39;6.57;;;4.13;;
33858;SDS011;20156;47.486;12.074;2024-02-26T00:44:04;4.70;;;3.47;;
33858;SDS011;20156;47.486;12.074;2024-02-26T00:46:30;4.90;;;4.07;;
33858;SDS011;20156;47.486;12.074;2024-02-26T00:48:55;6.43;;;4.50;;
33858;SDS011;20156;47.486;12.074;2024-02-26T00:51:20;5.03;;;4.07;;
33858;SDS011;20156;47.486;12.074;2024-02-26T00:53:45;4.90;;;4.40;;
33858;SDS011;20156;47.486;12.074;2024-02-26T00:56:11;3.77;;;3.37;;
33858;SDS011;20156;47.486;12.074;2024-02-26T00:58:36;3.60;;;3.30;;
33858;SDS011;20156;47.486;12.074;2024-02-26T01:01:01;5.37;;;4.27;;
33858;SDS011;20156;47.486;12.074;2024-02-26T01:03:28;6.70;;;4.67;;
33858;SDS011;20156;47.486;12.074;2024-02-26T01:05:53;7.37;;;4.73;;
33858;SDS011;20156;47.486;12.074;2024-02-26T01:08:18;5.57;;;4.57;;
33858;SDS011;20156;47.486;12.074;2024-02-26T01:10:43;6.20;;;4.80;;
33858;SDS011;20156;47.486;12.074;2024-02-26T01:13:09;6.67;;;4.60;;
33858;SDS011;20156;47.486;12.074;2024-02-26T01:15:34;6.90;;;4.70;;
33858;SDS011;20156;47.486;12.074;2024-02-26T01:17:59;5.50;;;4.07;;
33858;SDS011;20156;47.486;12.074;2024-02-26T01:20:25;5.57;;;3.60;;
33858;SDS011;20156;47.486;12.074;2024-02-26T01:22:50;7.37;;;4.00;;
33858;SDS011;20156;47.486;12.074;2024-02-26T01:25:15;5.70;;;4.30;;
33858;SDS011;20156;47.486;12.074;2024-02-26T01:27:41;6.57;;;4.17;;
33858;SDS011;20156;47.486;12.074;2024-02-26T01:30:07;6.57;;;5.47;;
33858;SDS011;20156;47.486;12.074;2024-02-26T01:32:33;5.20;;;4.20;;
33858;SDS011;20156;47.486;12.074;2024-02-26T01:34:58;4.93;;;3.80;;
33858;SDS011;20156;47.486;12.074;2024-02-26T01:37:23;5.33;;;3.77;;
33858;SDS011;20156;47.486;12.074;2024-02-26T01:39:49;5.70;;;4.10;;
33858;SDS011;20156;47.486;12.074;2024-02-26T01:42:14;4.47;;;3.60;;
33858;SDS011;20156;47.486;12.074;2024-02-26T01:44:39;8.37;;;4.53;;
33858;SDS011;20156;47.486;12.074;2024-02-26T01:47:12;5.47;;;3.40;;
33858;SDS011;20156;47.486;12.074;2024-02-26T01:49:38;4.97;;;3.80;;
33858;SDS011;20156;47.486;12.074;2024-02-26T01:52:04;4.20;;;3.73;;
33858;SDS011;20156;47.486;12.074;2024-02-26T01:54:29;6.07;;;3.77;;
33858;SDS011;20156;47.486;12.074;2024-02-26T01:56:55;4.97;;;3.50;;
33858;SDS011;20156;47.486;12.074;2024-02-26T01:59:21;3.60;;;3.07;;
33858;SDS011;20156;47.486;12.074;2024-02-26T02:01:47;4.00;;;2.87;;
33858;SDS011;20156;47.486;12.074;2024-02-26T02:04:13;2.67;;;2.40;;
33858;SDS011;20156;47.486;12.074;2024-02-26T02:06:39;3.07;;;2.77;;
33858;SDS011;20156;47.486;12.074;2024-02-26T02:09:05;6.53;;;3.57;;
33858;SDS011;20156;47.486;12.074;2024-02-26T02:11:32;4.60;;;3.73;;
33858;SDS011;20156;47.486;12.074;2024-02-26T02:13:58;4.37;;;3.50;;
33858;SDS011;20156;47.486;12.074;2024-02-26T02:16:23;3.80;;;2.73;;
33858;SDS011;20156;47.486;12.074;2024-02-26T02:18:48;3.30;;;2.70;;
33858;SDS011;20156;47.486;12.074;2024-02-26T02:21:13;3.67;;;2.77;;
33858;SDS011;20156;47.486;12.074;2024-02-26T02:23:39;2.77;;;2.43;;
33858;SDS011;20156;47.486;12.074;2024-02-26T02:26:04;2.80;;;2.37;;
33858;SDS011;20156;47.486;12.074;2024-02-26T02:28:29;4.07;;;3.00;;
33858;SDS011;20156;47.486;12.074;2024-02-26T02:30:55;3.57;;;2.60;;
33858;SDS011;20156;47.486;12.074;2024-02-26T02:33:21;3.30;;;2.50;;
33858;SDS011;20156;47.486;12.074;2024-02-26T02:35:47;2.73;;;2.47;;
33858;SDS011;20156;47.486;12.074;2024-02-26T02:38:13;3.13;;;2.30;;
33858;SDS011;20156;47.486;12.074;2024-02-26T02:40:38;3.77;;;2.60;;
33858;SDS011;20156;47.486;12.074;2024-02-26T02:43:04;3.60;;;2.47;;
33858;SDS011;20156;47.486;12.074;2024-02-26T02:45:29;22.93;;;10.30;;
33858;SDS011;20156;47.486;12.074;2024-02-26T02:47:54;8.33;;;3.47;;
33858;SDS011;20156;47.486;12.074;2024-02-26T02:50:20;2.50;;;2.17;;
33858;SDS011;20156;47.486;12.074;2024-02-26T02:52:45;2.43;;;2.23;;
33858;SDS011;20156;47.486;12.074;2024-02-26T02:55:10;3.13;;;2.20;;
33858;SDS011;20156;47.486;12.074;2024-02-26T02:57:36;3.03;;;2.40;;
33858;SDS011;20156;47.486;12.074;2024-02-26T03:00:07;5.70;;;3.00;;
33858;SDS011;20156;47.486;12.074;2024-02-26T03:02:33;4.87;;;3.90;;
33858;SDS011;20156;47.486;12.074;2024-02-26T03:05:00;2.37;;;2.17;;
33858;SDS011;20156;47.486;12.074;2024-02-26T03:07:25;3.77;;;2.80;;
33858;SDS011;20156;47.486;12.074;2024-02-26T03:09:51;4.33;;;3.47;;
33858;SDS011;20156;47.486;12.074;2024-02-26T03:12:16;3.13;;;2.73;;
33858;SDS011;20156;47.486;12.074;2024-02-26T03:14:41;3.27;;;2.37;;
33858;SDS011;20156;47.486;12.074;2024-02-26T03:17:06;3.37;;;2.20;;
33858;SDS011;20156;47.486;12.074;2024-02-26T03:19:32;2.63;;;2.10;;
33858;SDS011;20156;47.486;12.074;2024-02-26T03:21:57;5.83;;;3.70;;
33858;SDS011;20156;47.486;12.074;2024-02-26T03:24:22;2.60;;;2.40;;
33858;SDS011;20156;47.486;12.074;2024-02-26T03:26:47;4.20;;;3.17;;
33858;SDS011;20156;47.486;12.074;2024-02-26T03:29:12;4.67;;;3.17;;
33858;SDS011;20156;47.486;12.074;2024-02-26T03:31:38;4.63;;;2.83;;
33858;SDS011;20156;47.486;12.074;2024-02-26T03:34:03;3.10;;;2.80;;
33858;SDS011;20156;47.486;12.074;2024-02-26T03:36:28;3.47;;;3.03;;
33858;SDS011;20156;47.486;12.074;2024-02-26T03:38:53;2.67;;;2.47;;
33858;SDS011;20156;47.486;12.074;2024-02-26T03:41:19;5.07;;;2.83;;
33858;SDS011;20156;47.486;12.074;2024-02-26T03:43:44;3.30;;;2.37;;
33858;SDS011;20156;47.486;12.074;2024-02-26T03:46:10;2.70;;;2.40;;
33858;SDS011;20156;47.486;12.074;2024-02-26T03:48:36;2.43;;;2.17;;
33858;SDS011;20156;47.486;12.074;2024-02-26T03:51:01;4.10;;;2.57;;
33858;SDS011;20156;47.486;12.074;2024-02-26T03:53:26;2.60;;;2.20;;
33858;SDS011;20156;47.486;12.074;2024-02-26T03:55:53;3.80;;;2.60;;
33858;SDS011;20156;47.486;12.074;2024-02-26T03:58:18;3.40;;;2.47;;
33858;SDS011;20156;47.486;12.074;2024-02-26T04:00:43;4.33;;;2.50;;
33858;SDS011;20156;47.486;12.074;2024-02-26T04:03:09;2.33;;;2.13;;
33858;SDS011;20156;47.486;12.074;2024-02-26T04:05:34;3.37;;;2.67;;
33858;SDS011;20156;47.486;12.074;2024-02-26T04:07:59;4.10;;;3.20;;
33858;SDS011;20156;47.486;12.074;2024-02-26T04:10:25;4.70;;;2.50;;
33858;SDS011;20156;47.486;12.074;2024-02-26T04:12:50;4.47;;;2.50;;
33858;SDS011;20156;47.486;12.074;2024-02-26T04:15:15;3.07;;;2.20;;
33858;SDS011;20156;47.486;12.074;2024-02-26T04:17:40;3.57;;;2.43;;
33858;SDS011;20156;47.486;12.074;2024-02-26T04:20:06;4.07;;;2.50;;
33858;SDS011;20156;47.486;12.074;2024-02-26T04:22:32;2.93;;;2.37;;
33858;SDS011;20156;47.486;12.074;2024-02-26T04:24:57;2.03;;;1.83;;
33858;SDS011;20156;47.486;12.074;2024-02-26T04:27:22;2.80;;;1.87;;
33858;SDS011;20156;47.486;12.074;2024-02-26T04:29:47;2.97;;;1.97;;
33858;SDS011;20156;47.486;12.074;2024-02-26T04:32:13;2.53;;;1.80;;
33858;SDS011;20156;47.486;12.074;2024-02-26T04:34:38;2.07;;;1.80;;
33858;SDS011;20156;47.486;12.074;2024-02-26T04:37:03;2.63;;;2.13;;
33858;SDS011;20156;47.486;12.074;2024-02-26T04:39:28;3.17;;;2.23;;
33858;SDS011;20156;47.486;12.074;2024-02-26T04:41:54;2.73;;;2.40;;
33858;SDS011;20156;47.486;12.074;2024-02-26T04:44:19;2.67;;;2.20;;
33858;SDS011;20156;47.486;12.074;2024-02-26T04:46:44;3.33;;;2.00;;
33858;SDS011;20156;47.486;12.074;2024-02-26T04:49:09;1.83;;;1.70;;
33858;SDS011;20156;47.486;12.074;2024-02-26T04:51:34;3.00;;;2.00;;
33858;SDS011;20156;47.486;12.074;2024-02-26T04:54:00;1.70;;;1.60;;
33858;SDS011;20156;47.486;12.074;2024-02-26T04:56:25;2.03;;;1.73;;
33858;SDS011;20156;47.486;12.074;2024-02-26T04:58:50;1.63;;;1.53;;
33858;SDS011;20156;47.486;12.074;2024-02-26T05:01:16;2.00;;;1.53;;
33858;SDS011;20156;47.486;12.074;2024-02-26T05:03:42;1.60;;;1.50;;
33858;SDS011;20156;47.486;12.074;2024-02-26T05:06:07;2.00;;;1.83;;
33858;SDS011;20156;47.486;12.074;2024-02-26T05:08:34;3.30;;;2.20;;
33858;SDS011;20156;47.486;12.074;2024-02-26T05:11:00;3.80;;;2.33;;
33858;SDS011;20156;47.486;12.074;2024-02-26T05:13:27;3.43;;;2.97;;
33858;SDS011;20156;47.486;12.074;2024-02-26T05:15:52;2.50;;;1.87;;
33858;SDS011;20156;47.486;12.074;2024-02-26T05:18:18;1.70;;;1.60;;
33858;SDS011;20156;47.486;12.074;2024-02-26T05:20:43;3.43;;;2.77;;
33858;SDS011;20156;47.486;12.074;2024-02-26T05:23:09;7.63;;;2.73;;
33858;SDS011;20156;47.486;12.074;2024-02-26T05:25:34;2.80;;;2.43;;
33858;SDS011;20156;47.486;12.074;2024-02-26T05:27:59;2.27;;;2.03;;
33858;SDS011;20156;47.486;12.074;2024-02-26T05:30:25;4.17;;;2.80;;
33858;SDS011;20156;47.486;12.074;2024-02-26T05:32:52;7.87;;;5.70;;
33858;SDS011;20156;47.486;12.074;2024-02-26T05:35:17;13.40;;;4.87;;
33858;SDS011;20156;47.486;12.074;2024-02-26T05:37:42;4.70;;;3.00;;
33858;SDS011;20156;47.486;12.074;2024-02-26T05:40:08;7.03;;;3.77;;
33858;SDS011;20156;47.486;12.074;2024-02-26T05:42:33;3.87;;;3.27;;
33858;SDS011;20156;47.486;12.074;2024-02-26T05:44:58;5.30;;;3.73;;
33858;SDS011;20156;47.486;12.074;2024-02-26T05:47:24;3.83;;;3.10;;
33858;SDS011;20156;47.486;12.074;2024-02-26T05:49:49;4.57;;;2.63;;
33858;SDS011;20156;47.486;12.074;2024-02-26T05:52:14;12.57;;;7.57;;
33858;SDS011;20156;47.486;12.074;2024-02-26T05:54:40;11.40;;;7.90;;
33858;SDS011;20156;47.486;12.074;2024-02-26T05:57:05;6.10;;;4.30;;
33858;SDS011;20156;47.486;12.074;2024-02-26T05:59:30;5.63;;;4.17;;
33858;SDS011;20156;47.486;12.074;2024-02-26T06:01:55;11.00;;;4.37;;
33858;SDS011;20156;47.486;12.074;2024-02-26T06:04:20;4.70;;;3.47;;
33858;SDS011;20156;47.486;12.074;2024-02-26T06:06:46;4.37;;;3.10;;
33858;SDS011;20156;47.486;12.074;2024-02-26T06:09:11;5.73;;;3.40;;
33858;SDS011;20156;47.486;12.074;2024-02-26T06:11:37;8.60;;;3.50;;
33858;SDS011;20156;47.486;12.074;2024-02-26T06:14:02;5.90;;;3.60;;
33858;SDS011;20156;47.486;12.074;2024-02-26T06:16:27;5.03;;;3.53;;
33858;SDS011;20156;47.486;12.074;2024-02-26T06:18:53;5.23;;;3.93;;
33858;SDS011;20156;47.486;12.074;2024-02-26T06:21:18;4.33;;;3.60;;
33858;SDS011;20156;47.486;12.074;2024-02-26T06:23:43;3.90;;;3.23;;
33858;SDS011;20156;47.486;12.074;2024-02-26T06:26:08;4.23;;;3.40;;
33858;SDS011;20156;47.486;12.074;2024-02-26T06:28:35;3.90;;;3.07;;
33858;SDS011;20156;47.486;12.074;2024-02-26T06:31:00;2.47;;;2.20;;
33858;SDS011;20156;47.486;12.074;2024-02-26T06:33:26;3.90;;;3.50;;
33858;SDS011;20156;47.486;12.074;2024-02-26T06:35:51;5.03;;;4.00;;
33858;SDS011;20156;47.486;12.074;2024-02-26T06:38:16;7.47;;;4.23;;
33858;SDS011;20156;47.486;12.074;2024-02-26T06:40:42;4.50;;;3.50;;
33858;SDS011;20156;47.486;12.074;2024-02-26T06:43:07;5.43;;;3.20;;
33858;SDS011;20156;47.486;12.074;2024-02-26T06:45:33;4.67;;;3.23;;
33858;SDS011;20156;47.486;12.074;2024-02-26T06:47:58;6.80;;;3.70;;
33858;SDS011;20156;47.486;12.074;2024-02-26T06:50:24;4.17;;;3.73;;
33858;SDS011;20156;47.486;12.074;2024-02-26T06:52:49;4.03;;;3.40;;
33858;SDS011;20156;47.486;12.074;2024-02-26T06:55:14;3.87;;;3.07;;
33858;SDS011;20156;47.486;12.074;2024-02-26T06:57:40;3.97;;;3.47;;
33858;SDS011;20156;47.486;12.074;2024-02-26T07:00:05;5.90;;;4.40;;
33858;SDS011;20156;47.486;12.074;2024-02-26T07:02:31;6.90;;;4.13;;
33858;SDS011;20156;47.486;12.074;2024-02-26T07:04:56;7.30;;;4.43;;
33858;SDS011;20156;47.486;12.074;2024-02-26T07:07:23;6.37;;;4.00;;
33858;SDS011;20156;47.486;12.074;2024-02-26T07:09:48;5.07;;;3.60;;
33858;SDS011;20156;47.486;12.074;2024-02-26T07:12:14;4.60;;;4.00;;
33858;SDS011;20156;47.486;12.074;2024-02-26T07:14:39;5.13;;;3.60;;
33858;SDS011;20156;47.486;12.074;2024-02-26T07:17:04;6.73;;;4.30;;
33858;SDS011;20156;47.486;12.074;2024-02-26T07:19:30;5.20;;;3.90;;
33858;SDS011;20156;47.486;12.074;2024-02-26T07:21:55;6.60;;;4.20;;
33858;SDS011;20156;47.486;12.074;2024-02-26T07:24:20;4.07;;;3.63;;
33858;SDS011;20156;47.486;12.074;2024-02-26T07:26:45;24.10;;;18.07;;
33858;SDS011;20156;47.486;12.074;2024-02-26T07:29:11;11.53;;;8.73;;
33858;SDS011;20156;47.486;12.074;2024-02-26T07:31:36;4.70;;;3.43;;
33858;SDS011;20156;47.486;12.074;2024-02-26T07:34:01;6.57;;;4.30;;
33858;SDS011;20156;47.486;12.074;2024-02-26T07:36:26;9.97;;;6.23;;
33858;SDS011;20156;47.486;12.074;2024-02-26T07:38:52;8.33;;;5.67;;
33858;SDS011;20156;47.486;12.074;2024-02-26T07:41:19;8.17;;;5.90;;
33858;SDS011;20156;47.486;12.074;2024-02-26T07:43:44;9.73;;;5.57;;
33858;SDS011;20156;47.486;12.074;2024-02-26T07:46:11;7.97;;;5.47;;
33858;SDS011;20156;47.486;12.074;2024-02-26T07:48:36;9.33;;;6.30;;
33858;SDS011;20156;47.486;12.074;2024-02-26T07:51:02;8.13;;;5.07;;
33858;SDS011;20156;47.486;12.074;2024-02-26T07:53:28;5.20;;;3.83;;
33858;SDS011;20156;47.486;12.074;2024-02-26T07:55:53;6.23;;;3.73;;
33858;SDS011;20156;47.486;12.074;2024-02-26T07:58:18;7.60;;;4.90;;
33858;SDS011;20156;47.486;12.074;2024-02-26T08:00:44;6.90;;;4.30;;
33858;SDS011;20156;47.486;12.074;2024-02-26T08:03:11;10.50;;;5.50;;
33858;SDS011;20156;47.486;12.074;2024-02-26T08:05:38;5.67;;;3.97;;
33858;SDS011;20156;47.486;12.074;2024-02-26T08:08:05;12.23;;;5.77;;
33858;SDS011;20156;47.486;12.074;2024-02-26T08:10:31;7.60;;;5.13;;
33858;SDS011;20156;47.486;12.074;2024-02-26T08:12:56;5.60;;;4.30;;
33858;SDS011;20156;47.486;12.074;2024-02-26T08:15:29;8.73;;;5.97;;
33858;SDS011;20156;47.486;12.074;2024-02-26T08:17:55;7.10;;;4.00;;
33858;SDS011;20156;47.486;12.074;2024-02-26T08:20:20;6.07;;;3.20;;
33858;SDS011;20156;47.486;12.074;2024-02-26T08:22:45;4.00;;;3.07;;
33858;SDS011;20156;47.486;12.074;2024-02-26T08:25:10;4.10;;;2.97;;
33858;SDS011;20156;47.486;12.074;2024-02-26T08:27:36;5.27;;;3.53;;
33858;SDS011;20156;47.486;12.074;2024-02-26T08:30:01;5.70;;;3.40;;
33858;SDS011;20156;47.486;12.074;2024-02-26T08:32:26;6.87;;;5.10;;
33858;SDS011;20156;47.486;12.074;2024-02-26T08:34:52;4.30;;;3.43;;
33858;SDS011;20156;47.486;12.074;2024-02-26T08:37:17;8.13;;;5.40;;
33858;SDS011;20156;47.486;12.074;2024-02-26T08:39:43;3.93;;;2.57;;
33858;SDS011;20156;47.486;12.074;2024-02-26T08:42:10;5.97;;;3.70;;
33858;SDS011;20156;47.486;12.074;2024-02-26T08:44:35;4.27;;;2.83;;
33858;SDS011;20156;47.486;12.074;2024-02-26T08:47:00;5.67;;;3.97;;
33858;SDS011;20156;47.486;12.074;2024-02-26T08:49:25;4.53;;;3.33;;
33858;SDS011;20156;47.486;12.074;2024-02-26T08:51:51;4.70;;;2.90;;
33858;SDS011;20156;47.486;12.074;2024-02-26T08:54:16;3.77;;;3.30;;
33858;SDS011;20156;47.486;12.074;2024-02-26T08:56:41;4.47;;;3.23;;
33858;SDS011;20156;47.486;12.074;2024-02-26T08:59:06;5.93;;;4.47;;
33858;SDS011;20156;47.486;12.074;2024-02-26T09:01:31;5.30;;;2.97;;
33858;SDS011;20156;47.486;12.074;2024-02-26T09:03:57;6.17;;;4.30;;
33858;SDS011;20156;47.486;12.074;2024-02-26T09:06:23;4.70;;;3.77;;
33858;SDS011;20156;47.486;12.074;2024-02-26T09:08:48;5.23;;;4.03;;
33858;SDS011;20156;47.486;12.074;2024-02-26T09:11:13;3.13;;;2.83;;
33858;SDS011;20156;47.486;12.074;2024-02-26T09:13:39;4.83;;;2.87;;
33858;SDS011;20156;47.486;12.074;2024-02-26T09:16:04;5.53;;;2.57;;
33858;SDS011;20156;47.486;12.074;2024-02-26T09:18:30;4.00;;;3.00;;
33858;SDS011;20156;47.486;12.074;2024-02-26T09:20:55;5.37;;;3.23;;
33858;SDS011;20156;47.486;12.074;2024-02-26T09:23:20;5.77;;;3.60;;
33858;SDS011;20156;47.486;12.074;2024-02-26T09:25:45;5.83;;;3.50;;
33858;SDS011;20156;47.486;12.074;2024-02-26T09:28:11;3.83;;;2.90;;
33858;SDS011;20156;47.486;12.074;2024-02-26T09:30:36;3.27;;;2.63;;
33858;SDS011;20156;47.486;12.074;2024-02-26T09:33:01;3.50;;;2.30;;
33858;SDS011;20156;47.486;12.074;2024-02-26T09:35:26;3.17;;;2.00;;
33858;SDS011;20156;47.486;12.074;2024-02-26T09:37:52;3.67;;;2.10;;
33858;SDS011;20156;47.486;12.074;2024-02-26T09:40:17;2.20;;;1.88;;
33858;SDS011;20156;47.486;12.074;2024-02-26T09:42:43;2.53;;;1.90;;
33858;SDS011;20156;47.486;12.074;2024-02-26T09:45:09;2.03;;;1.83;;
33858;SDS011;20156;47.486;12.074;2024-02-26T09:47:37;2.10;;;1.90;;
33858;SDS011;20156;47.486;12.074;2024-02-26T09:50:03;3.15;;;2.40;;
33858;SDS011;20156;47.486;12.074;2024-02-26T09:52:28;4.97;;;2.40;;
33858;SDS011;20156;47.486;12.074;2024-02-26T09:54:56;2.10;;;1.90;;
33858;SDS011;20156;47.486;12.074;2024-02-26T09:57:21;3.47;;;2.10;;
33858;SDS011;20156;47.486;12.074;2024-02-26T09:59:49;5.70;;;2.42;;
33858;SDS011;20156;47.486;12.074;2024-02-26T10:02:16;4.68;;;2.13;;
33858;SDS011;20156;47.486;12.074;2024-02-26T10:04:43;3.30;;;2.45;;
33858;SDS011;20156;47.486;12.074;2024-02-26T10:07:12;3.08;;;2.13;;
33858;SDS011;20156;47.486;12.074;2024-02-26T10:09:38;4.28;;;2.28;;
33858;SDS011;20156;47.486;12.074;2024-02-26T10:12:04;2.08;;;1.83;;
33858;SDS011;20156;47.486;12.074;2024-02-26T10:14:29;3.15;;;1.83;;
33858;SDS011;20156;47.486;12.074;2024-02-26T10:16:55;2.33;;;1.85;;
33858;SDS011;20156;47.486;12.074;2024-02-26T10:19:27;2.90;;;2.30;;
33858;SDS011;20156;47.486;12.074;2024-02-26T10:21:56;3.00;;;2.13;;
33858;SDS011;20156;47.486;12.074;2024-02-26T10:24:22;3.13;;;2.08;;
33858;SDS011;20156;47.486;12.074;2024-02-26T10:26:47;5.90;;;2.30;;
33858;SDS011;20156;47.486;12.074;2024-02-26T10:29:13;3.33;;;2.13;;
33858;SDS011;20156;47.486;12.074;2024-02-26T10:31:41;2.63;;;2.42;;
33858;SDS011;20156;47.486;12.074;2024-02-26T10:34:07;3.50;;;2.30;;
33858;SDS011;20156;47.486;12.074;2024-02-26T10:36:33;2.17;;;1.98;;
33858;SDS011;20156;47.486;12.074;2024-02-26T10:39:01;2.15;;;1.90;;
33858;SDS011;20156;47.486;12.074;2024-02-26T10:41:26;2.30;;;2.03;;
33858;SDS011;20156;47.486;12.074;2024-02-26T10:43:52;2.70;;;2.20;;
33858;SDS011;20156;47.486;12.074;2024-02-26T10:46:17;2.28;;;2.08;;
33858;SDS011;20156;47.486;12.074;2024-02-26T10:48:49;2.63;;;1.95;;
33858;SDS011;20156;47.486;12.074;2024-02-26T10:51:14;3.13;;;2.53;;
33858;SDS011;20156;47.486;12.074;2024-02-26T10:53:39;3.17;;;2.38;;
33858;SDS011;20156;47.486;12.074;2024-02-26T10:56:07;8.07;;;5.82;;
33858;SDS011;20156;47.486;12.074;2024-02-26T10:58:33;1.80;;;1.55;;
33858;SDS011;20156;47.486;12.074;2024-02-26T11:00:58;5.88;;;2.53;;
33858;SDS011;20156;47.486;12.074;2024-02-26T11:03:24;2.03;;;1.65;;
33858;SDS011;20156;47.486;12.074;2024-02-26T11:05:50;6.40;;;3.80;;
33858;SDS011;20156;47.486;12.074;2024-02-26T11:08:18;5.47;;;4.05;;
33858;SDS011;20156;47.486;12.074;2024-02-26T11:10:44;1.70;;;1.50;;
33858;SDS011;20156;47.486;12.074;2024-02-26T11:13:12;6.03;;;4.38;;
33858;SDS011;20156;47.486;12.074;2024-02-26T11:15:39;3.15;;;2.78;;
33858;SDS011;20156;47.486;12.074;2024-02-26T11:18:04;2.05;;;1.65;;
33858;SDS011;20156;47.486;12.074;2024-02-26T11:20:30;2.65;;;1.85;;
33858;SDS011;20156;47.486;12.074;2024-02-26T11:22:57;1.52;;;1.17;;
33858;SDS011;20156;47.486;12.074;2024-02-26T11:25:22;2.70;;;2.17;;
33858;SDS011;20156;47.486;12.074;2024-02-26T11:27:49;2.40;;;1.60;;
33858;SDS011;20156;47.486;12.074;2024-02-26T11:30:15;3.88;;;3.10;;
33858;SDS011;20156;47.486;12.074;2024-02-26T11:32:45;5.65;;;2.35;;
33858;SDS011;20156;47.486;12.074;2024-02-26T11:35:15;0.70;;;0.60;;
33858;SDS011;20156;47.486;12.074;2024-02-26T11:37:50;2.67;;;2.25;;
33858;SDS011;20156;47.486;12.074;2024-02-26T11:40:16;3.60;;;2.72;;
33858;SDS011;20156;47.486;12.074;2024-02-26T11:42:45;3.78;;;2.78;;
33858;SDS011;20156;47.486;12.074;2024-02-26T11:47:56;0.88;;;0.88;;
33858;SDS011;20156;47.486;12.074;2024-02-26T11:50:34;0.80;;;0.80;;
33858;SDS011;20156;47.486;12.074;2024-02-26T11:55:43;0.65;;;0.65;;
33858;SDS011;20156;47.486;12.074;2024-02-26T11:58:09;0.90;;;0.80;;
33858;SDS011;20156;47.486;12.074;2024-02-26T12:00:34;1.75;;;0.60;;
33858;SDS011;20156;47.486;12.074;2024-02-26T12:02:59;1.00;;;1.00;;
33858;SDS011;20156;47.486;12.074;2024-02-26T12:05:32;2.55;;;2.35;;
33858;SDS011;20156;47.486;12.074;2024-02-26T12:08:02;3.05;;;2.85;;
33858;SDS011;20156;47.486;12.074;2024-02-26T12:10:38;1.02;;;0.80;;
33858;SDS011;20156;47.486;12.074;2024-02-26T12:13:13;0.35;;;0.35;;
33858;SDS011;20156;47.486;12.074;2024-02-26T12:15:41;0.70;;;0.70;;
33858;SDS011;20156;47.486;12.074;2024-02-26T12:18:06;3.67;;;0.70;;
33858;SDS011;20156;47.486;12.074;2024-02-26T12:20:33;2.25;;;1.20;;
33858;SDS011;20156;47.486;12.074;2024-02-26T12:22:58;1.05;;;0.95;;
33858;SDS011;20156;47.486;12.074;2024-02-26T12:25:28;0.90;;;0.80;;
33858;SDS011;20156;47.486;12.074;2024-02-26T12:27:54;1.77;;;0.80;;
33858;SDS011;20156;47.486;12.074;2024-02-26T12:30:19;3.40;;;1.35;;
33858;SDS011;20156;47.486;12.074;2024-02-26T12:32:45;2.40;;;1.50;;
33858;SDS011;20156;47.486;12.074;2024-02-26T12:35:11;1.35;;;1.00;;
33858;SDS011;20156;47.486;12.074;2024-02-26T12:37:36;2.08;;;1.30;;
33858;SDS011;20156;47.486;12.074;2024-02-26T12:40:05;2.35;;;1.30;;
33858;SDS011;20156;47.486;12.074;2024-02-26T12:42:31;1.40;;;1.30;;
33858;SDS011;20156;47.486;12.074;2024-02-26T12:44:57;2.13;;;1.17;;
33858;SDS011;20156;47.486;12.074;2024-02-26T12:47:22;1.45;;;1.02;;
33858;SDS011;20156;47.486;12.074;2024-02-26T12:49:48;1.20;;;1.10;;
33858;SDS011;20156;47.486;12.074;2024-02-26T12:52:13;0.65;;;0.60;;
33858;SDS011;20156;47.486;12.074;2024-02-26T12:54:39;0.70;;;0.70;;
33858;SDS011;20156;47.486;12.074;2024-02-26T12:57:05;0.65;;;0.65;;
33858;SDS011;20156;47.486;12.074;2024-02-26T12:59:31;1.17;;;1.08;;
33858;SDS011;20156;47.486;12.074;2024-02-26T13:01:57;2.00;;;1.30;;
33858;SDS011;20156;47.486;12.074;2024-02-26T13:04:23;1.40;;;1.20;;
33858;SDS011;20156;47.486;12.074;2024-02-26T13:06:48;1.27;;;0.90;;
33858;SDS011;20156;47.486;12.074;2024-02-26T13:09:14;0.65;;;0.65;;
33858;SDS011;20156;47.486;12.074;2024-02-26T13:11:39;1.02;;;0.82;;
33858;SDS011;20156;47.486;12.074;2024-02-26T13:14:04;1.23;;;0.82;;
33858;SDS011;20156;47.486;12.074;2024-02-26T13:16:31;1.05;;;0.77;;
33858;SDS011;20156;47.486;12.074;2024-02-26T13:18:57;1.88;;;0.75;;
33858;SDS011;20156;47.486;12.074;2024-02-26T13:21:32;0.88;;;0.77;;
33858;SDS011;20156;47.486;12.074;2024-02-26T13:23:58;1.25;;;0.77;;
33858;SDS011;20156;47.486;12.074;2024-02-26T13:26:23;0.57;;;0.52;;
33858;SDS011;20156;47.486;12.074;2024-02-26T13:29:15;1.95;;;0.95;;
33858;SDS011;20156;47.486;12.074;2024-02-26T13:31:38;0.90;;;0.70;;
33858;SDS011;20156;47.486;12.074;2024-02-26T13:34:04;0.70;;;0.70;;
33858;SDS011;20156;47.486;12.074;2024-02-26T13:36:30;1.00;;;0.80;;
33858;SDS011;20156;47.486;12.074;2024-02-26T13:38:55;1.17;;;0.98;;
33858;SDS011;20156;47.486;12.074;2024-02-26T13:41:21;0.90;;;0.90;;
33858;SDS011;20156;47.486;12.074;2024-02-26T13:43:46;0.93;;;0.90;;
33858;SDS011;20156;47.486;12.074;2024-02-26T13:46:11;2.13;;;0.85;;
33858;SDS011;20156;47.486;12.074;2024-02-26T13:48:38;0.93;;;0.70;;
33858;SDS011;20156;47.486;12.074;2024-02-26T13:51:04;0.93;;;0.70;;
33858;SDS011;20156;47.486;12.074;2024-02-26T13:53:29;1.85;;;0.80;;
33858;SDS011;20156;47.486;12.074;2024-02-26T13:55:54;2.35;;;1.00;;
33858;SDS011;20156;47.486;12.074;2024-02-26T13:58:20;1.10;;;1.00;;
33858;SDS011;20156;47.486;12.074;2024-02-26T14:00:48;2.17;;;1.25;;
33858;SDS011;20156;47.486;12.074;2024-02-26T14:03:14;1.00;;;1.00;;
33858;SDS011;20156;47.486;12.074;2024-02-26T14:05:39;1.92;;;1.20;;
33858;SDS011;20156;47.486;12.074;2024-02-26T14:08:05;3.35;;;1.20;;
33858;SDS011;20156;47.486;12.074;2024-02-26T14:10:31;2.08;;;1.20;;
33858;SDS011;20156;47.486;12.074;2024-02-26T14:12:56;1.60;;;1.08;;
33858;SDS011;20156;47.486;12.074;2024-02-26T14:15:22;1.90;;;1.20;;
33858;SDS011;20156;47.486;12.074;2024-02-26T14:17:49;1.00;;;0.95;;
33858;SDS011;20156;47.486;12.074;2024-02-26T14:20:23;1.50;;;1.00;;
33858;SDS011;20156;47.486;12.074;2024-02-26T14:22:49;1.30;;;1.20;;
33858;SDS011;20156;47.486;12.074;2024-02-26T14:25:16;0.93;;;0.80;;
33858;SDS011;20156;47.486;12.074;2024-02-26T14:27:41;4.85;;;1.17;;
33858;SDS011;20156;47.486;12.074;2024-02-26T14:30:07;0.80;;;0.80;;